createdAt,value
2024-04-08T00:01:21.396Z,62.62
2024-04-08T00:03:48.247Z,62.73
2024-04-08T00:06:15.070Z,63.11
2024-04-08T00:08:41.868Z,63.15
2024-04-08T00:11:08.974Z,63.67
2024-04-08T00:13:38.799Z,63.88
2024-04-08T00:16:08.740Z,63.71
2024-04-08T00:18:35.495Z,63.82
2024-04-08T00:21:04.158Z,64.18
2024-04-08T00:23:31.128Z,63.95
2024-04-08T00:25:57.945Z,64.45
2024-04-08T00:28:24.630Z,64.00
2024-04-08T00:30:51.351Z,64.18
2024-04-08T00:33:18.106Z,65.10
2024-04-08T00:35:44.950Z,64.80
2024-04-08T00:38:11.679Z,64.74
2024-04-08T00:40:39.145Z,64.63
2024-04-08T00:43:08.746Z,64.46
2024-04-08T00:45:40.051Z,65.03
2024-04-08T00:48:08.425Z,65.03
2024-04-08T00:50:37.180Z,64.89
2024-04-08T00:53:04.138Z,65.07
2024-04-08T00:55:33.644Z,64.78
2024-04-08T00:58:00.634Z,64.88
2024-04-08T01:00:27.352Z,64.69
2024-04-08T01:02:55.899Z,64.18
2024-04-08T01:05:22.816Z,63.90
2024-04-08T01:07:49.905Z,63.84
2024-04-08T01:10:18.618Z,64.38
2024-04-08T01:12:45.379Z,64.11
2024-04-08T01:15:12.250Z,63.51
2024-04-08T01:17:39.102Z,63.70
2024-04-08T01:20:06.358Z,63.01
2024-04-08T01:22:34.453Z,63.00
2024-04-08T01:25:01.444Z,62.50
2024-04-08T01:27:28.273Z,62.31
2024-04-08T01:29:54.992Z,62.00
2024-04-08T01:32:22.028Z,62.10
2024-04-08T01:34:48.786Z,62.38
2024-04-08T01:37:15.563Z,62.13
2024-04-08T01:39:42.403Z,62.28
2024-04-08T01:42:09.173Z,61.54
2024-04-08T01:44:36.081Z,60.93
2024-04-08T01:47:02.845Z,61.21
2024-04-08T01:49:29.715Z,61.41
2024-04-08T01:51:56.477Z,61.53
2024-04-08T01:54:23.374Z,62.04
2024-04-08T01:56:50.202Z,62.22
2024-04-08T01:59:17.012Z,62.13
2024-04-08T02:01:43.715Z,62.16
2024-04-08T02:04:10.413Z,62.30
2024-04-08T02:06:37.239Z,61.78
2024-04-08T02:09:04.283Z,61.41
2024-04-08T02:11:31.011Z,61.59
2024-04-08T02:13:57.775Z,61.87
2024-04-08T02:16:24.561Z,62.00
2024-04-08T02:18:52.269Z,61.41
2024-04-08T02:21:19.015Z,61.55
2024-04-08T02:23:46.372Z,61.42
2024-04-08T02:26:13.234Z,61.11
2024-04-08T02:28:39.968Z,60.98
2024-04-08T02:31:06.688Z,61.10
2024-04-08T02:33:33.529Z,60.89
2024-04-08T02:36:05.508Z,60.50
2024-04-08T02:38:34.229Z,60.53
2024-04-08T02:41:01.681Z,60.69
2024-04-08T02:43:28.481Z,60.98
2024-04-08T02:45:55.503Z,60.69
2024-04-08T02:48:22.319Z,60.18
2024-04-08T02:50:49.349Z,60.94
2024-04-08T02:53:16.100Z,61.91
2024-04-08T02:55:42.800Z,60.92
2024-04-08T02:58:09.631Z,60.70
2024-04-08T03:01:15.234Z,60.53
2024-04-08T03:03:42.572Z,60.11
2024-04-08T03:06:12.785Z,60.06
2024-04-08T03:08:41.413Z,59.72
2024-04-08T03:11:09.001Z,60.02
2024-04-08T03:13:40.429Z,60.58
2024-04-08T03:16:07.560Z,60.38
2024-04-08T03:18:34.296Z,60.20
2024-04-08T03:21:05.043Z,60.65
2024-04-08T03:23:32.199Z,60.61
2024-04-08T03:26:07.951Z,60.72
2024-04-08T03:28:34.969Z,60.79
2024-04-08T03:31:09.653Z,60.95
2024-04-08T03:33:36.388Z,61.51
2024-04-08T03:36:09.794Z,61.65
2024-04-08T03:38:36.871Z,62.83
2024-04-08T03:41:05.914Z,63.37
2024-04-08T03:43:33.758Z,63.55
2024-04-08T03:46:01.313Z,62.63
2024-04-08T03:48:28.152Z,62.61
2024-04-08T03:50:54.902Z,63.31
2024-04-08T03:53:21.715Z,63.41
2024-04-08T03:55:48.402Z,63.88
2024-04-08T03:58:15.252Z,63.72
2024-04-08T04:00:42.005Z,64.27
2024-04-08T04:03:11.003Z,64.61
2024-04-08T04:05:37.967Z,64.31
2024-04-08T04:08:05.057Z,64.54
2024-04-08T04:10:31.850Z,64.36
2024-04-08T04:12:58.529Z,64.22
2024-04-08T04:15:25.283Z,64.59
2024-04-08T04:17:52.105Z,64.12
2024-04-08T04:20:25.891Z,64.41
2024-04-08T04:22:52.604Z,64.20
2024-04-08T04:25:19.489Z,63.90
2024-04-08T04:27:46.272Z,64.01
2024-04-08T04:30:13.073Z,63.98
2024-04-08T04:32:41.563Z,64.33
2024-04-08T04:35:08.384Z,64.01
2024-04-08T04:37:35.079Z,64.00
2024-04-08T04:40:02.070Z,64.31
2024-04-08T04:42:28.822Z,64.11
2024-04-08T04:44:55.702Z,63.64
2024-04-08T04:47:22.432Z,63.22
2024-04-08T04:49:49.163Z,62.35
2024-04-08T04:52:16.025Z,61.81
2024-04-08T04:54:42.875Z,61.36
2024-04-08T04:57:09.619Z,61.21
2024-04-08T04:59:36.343Z,61.00
2024-04-08T05:02:03.159Z,59.57
2024-04-08T05:04:29.891Z,59.67
2024-04-08T05:06:56.578Z,59.32
2024-04-08T05:09:23.273Z,58.32
2024-04-08T05:11:50.030Z,57.93
2024-04-08T05:14:17.101Z,57.74
2024-04-08T05:16:44.522Z,57.17
2024-04-08T05:19:11.251Z,56.42
2024-04-08T05:21:38.115Z,56.50
2024-04-08T05:24:05.172Z,56.15
2024-04-08T05:26:31.892Z,55.84
2024-04-08T05:28:58.571Z,55.71
2024-04-08T05:31:25.267Z,56.06
2024-04-08T05:33:52.248Z,56.52
2024-04-08T05:36:19.034Z,56.81
2024-04-08T05:38:45.840Z,57.38
2024-04-08T05:41:12.661Z,57.23
2024-04-08T05:43:39.363Z,56.70
2024-04-08T05:46:06.076Z,56.86
2024-04-08T05:48:32.828Z,56.52
2024-04-08T05:50:59.664Z,56.05
2024-04-08T05:53:26.421Z,55.18
2024-04-08T05:55:53.160Z,55.06
2024-04-08T05:58:19.865Z,55.02
2024-04-08T06:00:47.028Z,54.42
2024-04-08T06:03:13.755Z,53.13
2024-04-08T06:05:42.514Z,52.56
2024-04-08T06:08:09.344Z,52.98
2024-04-08T06:10:38.188Z,51.74
2024-04-08T06:13:05.137Z,51.77
2024-04-08T06:15:33.336Z,51.19
2024-04-08T06:18:00.507Z,50.65
2024-04-08T06:20:28.564Z,50.68
2024-04-08T06:22:55.669Z,49.66
2024-04-08T06:25:22.448Z,50.37
2024-04-08T06:27:49.150Z,49.03
2024-04-08T06:30:15.870Z,48.77
2024-04-08T06:32:42.662Z,47.19
2024-04-08T06:35:09.364Z,47.35
2024-04-08T06:37:36.079Z,47.93
2024-04-08T06:40:02.862Z,47.58
2024-04-08T06:42:29.617Z,46.85
2024-04-08T06:44:56.410Z,45.87
2024-04-08T06:47:25.681Z,45.57
2024-04-08T06:49:52.425Z,46.04
2024-04-08T06:52:19.156Z,46.09
2024-04-08T06:54:45.976Z,45.57
2024-04-08T06:57:12.792Z,45.34
2024-04-08T06:59:39.783Z,44.63
2024-04-08T07:02:06.879Z,44.45
2024-04-08T07:04:34.089Z,43.90
2024-04-08T07:07:00.856Z,44.15
2024-04-08T07:09:28.706Z,44.85
2024-04-08T07:11:59.065Z,43.44
2024-04-08T07:14:26.636Z,43.21
2024-04-08T07:16:53.454Z,42.78
2024-04-08T07:19:20.303Z,43.34
2024-04-08T07:21:47.005Z,42.69
2024-04-08T07:24:14.702Z,42.40
2024-04-08T07:26:41.433Z,41.53
2024-04-08T07:29:08.346Z,41.65
2024-04-08T07:31:35.043Z,41.86
2024-04-08T07:34:01.796Z,41.48
2024-04-08T07:36:28.507Z,41.32
2024-04-08T07:39:01.520Z,41.05
2024-04-08T07:41:29.750Z,40.98
2024-04-08T07:43:56.504Z,41.15
2024-04-08T07:46:23.186Z,40.85
2024-04-08T07:48:49.932Z,40.66
2024-04-08T07:51:16.710Z,40.82
2024-04-08T07:53:43.448Z,41.43
2024-04-08T07:56:10.234Z,42.42
2024-04-08T07:58:37.348Z,42.96
2024-04-08T08:01:05.125Z,43.16
2024-04-08T08:03:32.895Z,42.31
2024-04-08T08:06:01.376Z,42.60
2024-04-08T08:08:29.204Z,42.30
2024-04-08T08:11:04.543Z,42.56
2024-04-08T08:13:32.256Z,42.05
2024-04-08T08:16:00.010Z,41.73
2024-04-08T08:18:27.891Z,41.44
2024-04-08T08:20:55.818Z,41.28
2024-04-08T08:23:22.533Z,41.74
2024-04-08T08:25:50.004Z,41.35
2024-04-08T08:28:17.152Z,40.98
2024-04-08T08:30:43.921Z,40.46
2024-04-08T08:33:10.804Z,40.06
2024-04-08T08:35:37.651Z,40.11
2024-04-08T08:38:04.459Z,39.60
2024-04-08T08:40:33.846Z,39.84
2024-04-08T08:43:00.609Z,39.20
2024-04-08T08:45:28.674Z,39.19
2024-04-08T08:47:56.003Z,39.29
2024-04-08T08:50:24.764Z,39.14
2024-04-08T08:52:51.952Z,39.70
2024-04-08T08:55:20.804Z,39.94
2024-04-08T08:57:48.393Z,39.30
2024-04-08T09:00:18.202Z,38.92
2024-04-08T09:02:46.397Z,38.81
2024-04-08T09:05:13.198Z,38.86
2024-04-08T09:07:40.000Z,38.63
2024-04-08T09:10:07.152Z,38.71
2024-04-08T09:12:33.929Z,39.47
2024-04-08T09:15:00.793Z,39.01
2024-04-08T09:17:27.587Z,38.63
2024-04-08T09:19:54.631Z,39.07
2024-04-08T09:22:21.378Z,38.41
2024-04-08T09:24:48.102Z,37.81
2024-04-08T09:27:15.068Z,38.08
2024-04-08T09:29:41.977Z,37.59
2024-04-08T09:32:11.985Z,37.18
2024-04-08T09:34:38.687Z,37.64
2024-04-08T09:37:09.904Z,36.82
2024-04-08T09:39:41.647Z,37.38
2024-04-08T09:42:13.444Z,37.19
2024-04-08T09:44:44.872Z,37.30
2024-04-08T09:47:14.318Z,37.09
2024-04-08T09:49:48.109Z,36.55
2024-04-08T09:52:17.867Z,36.34
2024-04-08T09:54:44.705Z,36.11
2024-04-08T09:57:16.559Z,36.17
2024-04-08T09:59:43.915Z,35.96
2024-04-08T10:02:16.949Z,35.69
2024-04-08T10:04:44.160Z,35.53
2024-04-08T10:07:13.039Z,35.10
2024-04-08T10:09:40.342Z,35.15
2024-04-08T10:12:08.890Z,35.23
2024-04-08T10:14:36.131Z,35.33
2024-04-08T10:17:02.969Z,35.50
2024-04-08T10:19:29.842Z,35.01
2024-04-08T10:22:03.648Z,35.41
2024-04-08T10:24:39.214Z,34.93
2024-04-08T10:27:09.468Z,34.70
2024-04-08T10:29:39.439Z,34.97
2024-04-08T10:32:08.082Z,34.81
2024-04-08T10:34:36.095Z,34.74
2024-04-08T10:37:02.812Z,34.86
2024-04-08T10:39:30.116Z,34.79
2024-04-08T10:42:12.579Z,34.41
2024-04-08T10:44:39.423Z,34.68
2024-04-08T10:47:09.822Z,34.64
2024-04-08T10:49:37.203Z,35.32
2024-04-08T10:52:04.374Z,34.81
2024-04-08T10:54:32.665Z,35.48
2024-04-08T10:57:00.005Z,35.45
2024-04-08T10:59:27.083Z,35.76
2024-04-08T11:01:54.777Z,35.45
2024-04-08T11:04:23.031Z,35.39
2024-04-08T11:06:49.869Z,34.97
2024-04-08T11:09:17.209Z,34.06
2024-04-08T11:11:44.161Z,34.22
2024-04-08T11:14:10.898Z,33.97
2024-04-08T11:16:38.122Z,34.04
2024-04-08T11:19:04.920Z,34.47
2024-04-08T11:21:31.964Z,34.81
2024-04-08T11:23:58.817Z,34.81
2024-04-08T11:26:31.939Z,33.36
2024-04-08T11:29:02.662Z,33.58
2024-04-08T11:31:29.409Z,33.86
2024-04-08T11:33:56.137Z,33.86
2024-04-08T11:36:22.875Z,33.37
2024-04-08T11:38:50.031Z,33.54
2024-04-08T11:41:16.812Z,33.56
2024-04-08T11:43:45.837Z,33.97
2024-04-08T11:46:13.726Z,33.01
2024-04-08T11:48:42.986Z,32.92
2024-04-08T11:51:09.867Z,33.15
2024-04-08T11:53:36.603Z,33.08
2024-04-08T11:56:03.779Z,33.33
2024-04-08T11:58:30.462Z,33.40
2024-04-08T12:00:57.266Z,32.86
2024-04-08T12:03:24.281Z,32.88
2024-04-08T12:05:51.160Z,33.25
2024-04-08T12:08:17.947Z,32.79
2024-04-08T12:10:44.895Z,32.84
2024-04-08T12:13:19.875Z,32.73
2024-04-08T12:15:48.406Z,32.67
2024-04-08T12:18:15.465Z,32.52
2024-04-08T12:20:42.386Z,32.74
2024-04-08T12:23:13.123Z,33.04
2024-04-08T12:25:40.437Z,33.14
2024-04-08T12:28:09.922Z,33.11
2024-04-08T12:30:37.192Z,33.45
2024-04-08T12:33:04.695Z,33.54
2024-04-08T12:35:31.620Z,33.46
2024-04-08T12:37:58.393Z,33.60
2024-04-08T12:40:25.266Z,33.91
2024-04-08T12:42:52.198Z,33.76
2024-04-08T12:45:19.117Z,33.74
2024-04-08T12:47:46.289Z,33.61
2024-04-08T12:50:13.154Z,33.87
2024-04-08T12:52:40.167Z,34.11
2024-04-08T12:55:07.675Z,33.79
2024-04-08T12:57:34.494Z,34.02
2024-04-08T13:00:01.480Z,34.31
2024-04-08T13:02:29.633Z,34.21
2024-04-08T13:04:56.688Z,34.25
2024-04-08T13:07:23.700Z,33.98
2024-04-08T13:09:52.703Z,34.13
2024-04-08T13:12:19.721Z,34.42
2024-04-08T13:14:46.689Z,34.59
2024-04-08T13:17:14.095Z,34.30
2024-04-08T13:19:43.244Z,34.42
2024-04-08T13:22:11.734Z,34.87
2024-04-08T13:24:38.485Z,34.54
2024-04-08T13:27:05.556Z,100.00
2024-04-08T13:29:32.735Z,100.00
2024-04-08T13:31:59.479Z,100.00
2024-04-08T13:34:26.488Z,100.00
2024-04-08T13:36:53.486Z,100.00
2024-04-08T13:39:20.357Z,100.00
2024-04-08T13:41:49.011Z,100.00
2024-04-08T13:44:15.834Z,100.00
2024-04-08T13:46:43.592Z,100.00
2024-04-08T13:49:10.514Z,100.00
2024-04-08T13:51:37.398Z,100.00
2024-04-08T13:54:05.794Z,100.00
2024-04-08T13:56:34.496Z,100.00
2024-04-08T13:59:01.882Z,100.00
2024-04-08T14:01:28.894Z,100.00
2024-04-08T14:04:00.036Z,100.00
2024-04-08T14:06:27.415Z,100.00
2024-04-08T14:08:54.351Z,100.00
2024-04-08T14:11:21.453Z,100.00
2024-04-08T14:13:48.375Z,100.00
2024-04-08T14:16:15.181Z,100.00
2024-04-08T14:18:42.243Z,100.00
2024-04-08T14:21:10.808Z,100.00
2024-04-08T14:23:37.804Z,100.00
2024-04-08T14:26:04.683Z,100.00
2024-04-08T14:28:31.920Z,100.00
2024-04-08T14:30:59.105Z,100.00
2024-04-08T14:33:26.191Z,100.00
2024-04-08T14:35:53.343Z,100.00
2024-04-08T14:38:39.631Z,100.00
2024-04-08T14:41:09.498Z,100.00
2024-04-08T14:43:43.917Z,100.00
2024-04-08T14:46:18.342Z,100.00
2024-04-08T14:48:45.652Z,100.00
2024-04-08T14:51:14.189Z,100.00
2024-04-08T14:53:44.392Z,100.00
2024-04-08T14:56:13.032Z,100.00
2024-04-08T14:58:45.452Z,100.00
2024-04-08T15:01:14.446Z,100.00
2024-04-08T15:03:41.870Z,100.00
2024-04-08T15:06:09.010Z,100.00
2024-04-08T15:08:37.716Z,100.00
2024-04-08T15:11:05.418Z,100.00
2024-04-08T15:13:32.234Z,100.00
2024-04-08T15:15:59.062Z,100.00
2024-04-08T15:18:26.815Z,100.00
2024-04-08T15:20:54.132Z,100.00
2024-04-08T15:23:21.847Z,100.00
2024-04-08T15:25:48.732Z,100.00
2024-04-08T15:28:15.499Z,100.00
2024-04-08T15:30:43.268Z,100.00
2024-04-08T15:33:10.445Z,100.00
2024-04-08T15:35:37.311Z,100.00
2024-04-08T15:38:04.568Z,100.00
2024-04-08T15:40:33.855Z,100.00
2024-04-08T15:43:00.717Z,100.00
2024-04-08T15:45:27.789Z,100.00
2024-04-08T15:47:55.109Z,100.00
2024-04-08T15:50:22.036Z,100.00
2024-04-08T15:52:48.906Z,100.00
2024-04-08T15:55:18.118Z,100.00
2024-04-08T15:57:44.957Z,100.00
2024-04-08T16:00:13.761Z,100.00
2024-04-08T16:02:40.676Z,100.00
2024-04-08T16:05:07.778Z,100.00
2024-04-08T16:07:35.833Z,100.00
2024-04-08T16:10:02.698Z,100.00
2024-04-08T16:12:32.174Z,100.00
2024-04-08T16:15:01.331Z,100.00
2024-04-08T16:17:28.503Z,100.00
2024-04-08T16:19:55.273Z,100.00
2024-04-08T16:22:27.457Z,100.00
2024-04-08T16:24:57.877Z,100.00
2024-04-08T16:27:26.396Z,100.00
2024-04-08T16:29:53.529Z,100.00
2024-04-08T16:32:20.513Z,100.00
2024-04-08T16:34:47.372Z,100.00
2024-04-08T16:37:14.144Z,100.00
2024-04-08T16:39:40.919Z,100.00
2024-04-08T16:42:08.168Z,100.00
2024-04-08T16:44:35.010Z,100.00
2024-04-08T16:47:01.890Z,100.00
2024-04-08T16:49:33.942Z,100.00
2024-04-08T16:52:01.019Z,100.00
2024-04-08T16:54:30.320Z,100.00
2024-04-08T16:56:57.228Z,100.00
2024-04-08T16:59:24.020Z,100.00
2024-04-08T17:01:52.795Z,100.00
2024-04-08T17:04:19.708Z,100.00
2024-04-08T17:06:52.346Z,100.00
2024-04-08T17:09:26.239Z,100.00
2024-04-08T17:11:54.044Z,100.00
2024-04-08T17:14:20.894Z,100.00
2024-04-08T17:16:49.733Z,100.00
2024-04-08T17:19:19.916Z,100.00
2024-04-08T17:21:46.772Z,100.00
2024-04-08T17:24:13.686Z,100.00
2024-04-08T17:26:41.810Z,100.00
2024-04-08T17:29:08.540Z,100.00
2024-04-08T17:31:35.324Z,100.00
2024-04-08T17:34:02.169Z,100.00
2024-04-08T17:36:29.175Z,100.00
2024-04-08T17:38:56.008Z,100.00
2024-04-08T17:41:25.896Z,100.00
2024-04-08T17:43:57.185Z,100.00
2024-04-08T17:46:24.978Z,100.00
2024-04-08T17:48:52.096Z,100.00
2024-04-08T17:51:19.042Z,100.00
2024-04-08T17:53:45.924Z,100.00
2024-04-08T17:56:17.533Z,100.00
2024-04-08T17:58:45.563Z,100.00
2024-04-08T18:01:15.959Z,100.00
2024-04-08T18:03:44.636Z,100.00
2024-04-08T18:06:12.643Z,100.00
2024-04-08T18:08:43.639Z,100.00
2024-04-08T18:11:13.060Z,100.00
2024-04-08T18:13:41.026Z,100.00
2024-04-08T18:16:16.845Z,100.00
2024-04-08T18:18:46.918Z,100.00
2024-04-08T18:21:13.940Z,100.00
2024-04-08T18:23:41.202Z,100.00
2024-04-08T18:26:16.039Z,100.00
2024-04-08T18:28:43.738Z,100.00
2024-04-08T18:31:14.602Z,100.00
2024-04-08T18:33:42.664Z,100.00
2024-04-08T18:36:10.220Z,100.00
2024-04-08T18:38:37.482Z,100.00
2024-04-08T18:41:08.812Z,100.00
2024-04-08T18:43:37.270Z,100.00
2024-04-08T18:46:07.183Z,100.00
2024-04-08T18:48:34.341Z,100.00
2024-04-08T18:51:01.816Z,100.00
2024-04-08T18:53:28.727Z,100.00
2024-04-08T18:55:55.520Z,100.00
2024-04-08T18:58:22.264Z,100.00
2024-04-08T19:00:49.095Z,100.00
2024-04-08T19:03:19.037Z,100.00
2024-04-08T19:05:49.734Z,100.00
2024-04-08T19:08:17.293Z,100.00
2024-04-08T19:10:44.182Z,100.00
2024-04-08T19:13:11.181Z,100.00
2024-04-08T19:15:38.520Z,100.00
2024-04-08T19:18:05.900Z,100.00
2024-04-08T19:20:32.858Z,100.00
2024-04-08T19:22:59.693Z,100.00
2024-04-08T19:25:26.490Z,100.00
2024-04-08T19:27:56.814Z,100.00
2024-04-08T19:30:23.685Z,100.00
2024-04-08T19:32:50.944Z,100.00
2024-04-08T19:35:17.762Z,100.00
2024-04-08T19:37:44.759Z,100.00
2024-04-08T19:40:13.727Z,100.00
2024-04-08T19:42:40.573Z,100.00
2024-04-08T19:45:09.739Z,100.00
2024-04-08T19:47:44.577Z,100.00
2024-04-08T19:50:12.557Z,100.00
2024-04-08T19:52:39.714Z,100.00
2024-04-08T19:55:07.595Z,100.00
2024-04-08T19:57:35.683Z,100.00
2024-04-08T20:00:10.294Z,100.00
2024-04-08T20:02:39.018Z,100.00
2024-04-08T20:05:06.951Z,100.00
2024-04-08T20:07:33.804Z,100.00
2024-04-08T20:10:00.565Z,100.00
2024-04-08T20:12:27.690Z,100.00
2024-04-08T20:14:54.634Z,100.00
2024-04-08T20:17:21.523Z,100.00
2024-04-08T20:19:48.289Z,100.00
2024-04-08T20:22:15.086Z,100.00
2024-04-08T20:24:41.896Z,100.00
2024-04-08T20:27:08.870Z,100.00
2024-04-08T20:29:35.729Z,100.00
2024-04-08T20:32:02.525Z,100.00
2024-04-08T20:34:29.378Z,100.00
2024-04-08T20:36:56.662Z,100.00
2024-04-08T20:39:23.846Z,100.00
2024-04-08T20:41:50.784Z,100.00
2024-04-08T20:44:17.608Z,100.00
2024-04-08T20:46:44.375Z,100.00
2024-04-08T20:49:11.250Z,100.00
2024-04-08T20:51:45.306Z,100.00
2024-04-08T20:54:15.537Z,100.00
2024-04-08T20:56:42.622Z,100.00
2024-04-08T20:59:09.379Z,100.00
2024-04-08T21:01:36.248Z,100.00
2024-04-08T21:04:03.440Z,100.00
2024-04-08T21:06:30.383Z,100.00
2024-04-08T21:08:57.227Z,100.00
2024-04-08T21:11:24.902Z,100.00
2024-04-08T21:13:51.684Z,100.00
2024-04-08T21:16:18.414Z,100.00
2024-04-08T21:18:45.442Z,100.00
2024-04-08T21:21:12.357Z,100.00
2024-04-08T21:23:40.671Z,100.00
2024-04-08T21:26:15.529Z,100.00
2024-04-08T21:28:43.774Z,100.00
2024-04-08T21:31:11.963Z,100.00
2024-04-08T21:33:40.158Z,100.00
2024-04-08T21:36:08.552Z,100.00
2024-04-08T21:38:35.808Z,100.00
2024-04-08T21:41:05.336Z,100.00
2024-04-08T21:43:32.488Z,100.00
2024-04-08T21:46:01.748Z,100.00
2024-04-08T21:48:28.998Z,100.00
2024-04-08T21:50:58.824Z,100.00
2024-04-08T21:53:29.431Z,100.00
2024-04-08T21:56:00.224Z,100.00
2024-04-08T21:58:27.627Z,100.00
2024-04-08T22:00:56.572Z,100.00
2024-04-08T22:03:25.291Z,100.00
2024-04-08T22:05:52.292Z,100.00
2024-04-08T22:08:19.224Z,100.00
2024-04-08T22:10:46.143Z,100.00
2024-04-08T22:13:13.023Z,100.00
2024-04-08T22:15:40.452Z,100.00
2024-04-08T22:18:08.592Z,100.00
2024-04-08T22:20:35.576Z,100.00
2024-04-08T22:23:07.285Z,100.00
2024-04-08T22:25:37.685Z,100.00
2024-04-08T22:28:05.194Z,100.00
2024-04-08T22:30:32.273Z,100.00
2024-04-08T22:32:59.383Z,100.00
2024-04-08T22:35:26.333Z,100.00
2024-04-08T22:37:54.305Z,100.00
2024-04-08T22:40:21.754Z,100.00
2024-04-08T22:42:52.113Z,100.00
2024-04-08T22:45:19.041Z,100.00
2024-04-08T22:47:47.331Z,100.00
2024-04-08T22:50:14.876Z,100.00
2024-04-08T22:52:41.663Z,100.00
2024-04-08T22:55:10.874Z,100.00
2024-04-08T22:57:44.885Z,100.00
2024-04-08T23:00:13.529Z,100.00
2024-04-08T23:02:40.798Z,100.00
2024-04-08T23:05:08.391Z,100.00
2024-04-08T23:07:35.753Z,100.00
2024-04-08T23:10:03.125Z,100.00
2024-04-08T23:12:29.952Z,100.00
2024-04-08T23:14:56.710Z,100.00
2024-04-08T23:17:23.451Z,100.00
2024-04-08T23:19:50.606Z,100.00
2024-04-08T23:22:17.446Z,100.00
2024-04-08T23:24:44.180Z,100.00
2024-04-08T23:27:14.504Z,100.00
2024-04-08T23:29:41.427Z,100.00
2024-04-08T23:32:08.273Z,100.00
2024-04-08T23:34:35.380Z,100.00
2024-04-08T23:37:02.250Z,100.00
2024-04-08T23:39:29.108Z,100.00
2024-04-08T23:41:56.100Z,100.00
2024-04-08T23:44:22.946Z,100.00
2024-04-08T23:46:49.745Z,100.00
2024-04-08T23:49:16.618Z,100.00
2024-04-08T23:51:43.697Z,100.00
2024-04-08T23:54:10.840Z,100.00
2024-04-08T23:56:37.696Z,100.00
2024-04-08T23:59:04.419Z,100.00
